Time;durP1;ratioP1;P1;durP2;ratioP2;P2;SDS_P1;SDS_P2;PMS_P1;PMS_P2;Temp;Humidity;BMP_temperature;BMP_pressure;BME280_temperature;BME280_humidity;BME280_pressure;Samples;Min_cycle;Max_cycle;Signal;HPM_P1;HPM_P2
2022/01/03 00:00:12;;;;;;;0.30;0.20;;;;;;;11.67;100.00;100125.44;5009105;28;20452;-78
2022/01/03 00:02:40;;;;;;;0.30;0.20;;;;;;;11.37;100.00;100128.22;5038036;28;21002;-78
2022/01/03 00:05:09;;;;;;;0.30;0.20;;;;;;;11.36;100.00;100131.81;5020363;28;20452;-79
2022/01/03 00:07:41;;;;;;;0.30;0.20;;;;;;;11.34;100.00;100149.63;5001150;28;20957;-78
2022/01/03 00:10:09;;;;;;;0.30;0.20;;;;;;;11.18;100.00;100133.31;5013964;28;20452;-78
2022/01/03 00:12:37;;;;;;;0.30;0.20;;;;;;;11.13;100.00;100148.56;5020474;28;20451;-79
2022/01/03 00:15:06;;;;;;;0.30;0.20;;;;;;;11.13;100.00;100143.25;5007329;28;20477;-78
2022/01/03 00:17:33;;;;;;;0.30;0.20;;;;;;;11.19;100.00;100153.66;5018296;28;20476;-79
2022/01/03 00:19:59;;;;;;;0.30;0.20;;;;;;;11.14;100.00;100146.78;5000853;28;20480;-79
2022/01/03 00:22:31;;;;;;;0.30;0.20;;;;;;;11.16;100.00;100148.47;4999968;28;20958;-79
2022/01/03 00:25:03;;;;;;;0.30;0.20;;;;;;;11.12;100.00;100148.63;5024556;28;20499;-78
2022/01/03 00:28:04;;;;;;;0.30;0.20;;;;;;;11.32;100.00;100145.28;5019473;28;20900;-78
2022/01/03 00:30:35;;;;;;;0.30;0.20;;;;;;;11.24;100.00;100148.22;4977587;28;20458;-79
2022/01/03 00:33:02;;;;;;;0.30;0.20;;;;;;;11.26;100.00;100141.03;5037555;28;20933;-79
2022/01/03 00:35:31;;;;;;;0.30;0.20;;;;;;;11.13;100.00;100150.34;5029648;28;20443;-79
2022/01/03 00:38:00;;;;;;;0.30;0.20;;;;;;;11.12;100.00;100149.50;5021103;28;20496;-79
2022/01/03 00:40:32;;;;;;;0.30;0.20;;;;;;;11.28;100.00;100156.03;5011210;28;20578;-79
2022/01/03 00:42:59;;;;;;;0.30;0.20;;;;;;;11.13;100.00;100161.88;5012539;28;20452;-79
2022/01/03 00:45:25;;;;;;;0.30;0.20;;;;;;;11.19;100.00;100163.44;4999002;28;20878;-79
2022/01/03 00:47:54;;;;;;;0.30;0.20;;;;;;;11.34;100.00;100162.94;5015935;28;20903;-79
2022/01/03 00:50:23;;;;;;;0.30;0.20;;;;;;;11.25;100.00;100163.25;5007927;28;20440;-80
2022/01/03 00:52:51;;;;;;;0.30;0.20;;;;;;;10.98;100.00;100170.34;5012263;28;20440;-79
2022/01/03 00:55:19;;;;;;;0.30;0.20;;;;;;;11.34;100.00;100184.22;5014724;28;20510;-78
2022/01/03 00:57:52;;;;;;;0.30;0.20;;;;;;;11.06;100.00;100165.63;5005823;28;20992;-79
2022/01/03 01:00:19;;;;;;;0.30;0.20;;;;;;;11.22;100.00;100163.34;5042862;28;20440;-79
2022/01/03 01:03:10;;;;;;;0.30;0.20;;;;;;;10.98;100.00;100186.31;5020227;28;20482;-79
2022/01/03 01:05:39;;;;;;;0.30;0.20;;;;;;;11.07;100.00;100190.44;5027205;28;20460;-79
2022/01/03 01:08:07;;;;;;;0.30;0.20;;;;;;;11.04;100.00;100191.41;5012537;28;20468;-79
2022/01/03 01:10:36;;;;;;;0.30;0.20;;;;;;;10.84;100.00;100189.41;5003056;28;20448;-79
2022/01/03 01:13:06;;;;;;;0.30;0.20;;;;;;;11.15;100.00;100199.94;5003071;28;20511;-79
2022/01/03 01:15:34;;;;;;;0.30;0.20;;;;;;;11.04;100.00;100215.34;5021460;28;20611;-79
2022/01/03 01:18:03;;;;;;;0.30;0.20;;;;;;;10.89;100.00;100208.72;5040340;28;20487;-79
2022/01/03 01:20:33;;;;;;;0.30;0.20;;;;;;;11.17;100.00;100216.69;5040249;28;20447;-79
2022/01/03 01:23:00;;;;;;;0.30;0.20;;;;;;;11.07;100.00;100215.25;5022395;28;20863;-79
2022/01/03 01:27:56;;;;;;;0.30;0.20;;;;;;;11.09;100.00;100217.84;5020642;28;20989;-78
2022/01/03 01:30:25;;;;;;;0.30;0.20;;;;;;;11.11;100.00;100218.72;5017957;28;20515;-79
2022/01/03 01:33:01;;;;;;;0.30;0.20;;;;;;;11.00;100.00;100212.84;5012629;28;20440;-79
2022/01/03 01:35:53;;;;;;;0.30;0.20;;;;;;;11.11;100.00;100216.91;5013686;28;20448;-78
2022/01/03 01:38:23;;;;;;;0.30;0.20;;;;;;;11.14;100.00;100223.91;5014657;28;20518;-79
2022/01/03 01:40:58;;;;;;;0.30;0.20;;;;;;;11.13;100.00;100223.06;5030366;28;21030;-79
2022/01/03 01:43:46;;;;;;;0.30;0.20;;;;;;;10.82;100.00;100225.78;5014665;28;20447;-79
2022/01/03 01:46:15;;;;;;;0.30;0.20;;;;;;;10.84;100.00;100231.94;5029035;28;20466;-79
2022/01/03 01:48:44;;;;;;;0.30;0.20;;;;;;;10.83;100.00;100226.69;5012520;28;20478;-79
2022/01/03 01:51:16;;;;;;;0.30;0.20;;;;;;;10.91;100.00;100220.19;5008600;28;20433;-79
2022/01/03 01:53:47;;;;;;;0.30;0.20;;;;;;;10.82;100.00;100228.44;5028859;28;20515;-79
2022/01/03 01:56:37;;;;;;;0.30;0.20;;;;;;;10.87;100.00;100212.38;5010728;28;20448;-80
2022/01/03 01:59:11;;;;;;;0.30;0.20;;;;;;;10.71;100.00;100208.44;5014190;28;20476;-79
2022/01/03 02:01:42;;;;;;;0.30;0.20;;;;;;;11.04;100.00;100219.81;5033840;28;20436;-79
2022/01/03 02:04:47;;;;;;;0.30;0.20;;;;;;;10.63;100.00;100213.97;5032148;28;20458;-79
2022/01/03 02:07:24;;;;;;;0.30;0.20;;;;;;;10.88;100.00;100222.06;5027595;28;20452;-79
2022/01/03 02:10:07;;;;;;;0.30;0.20;;;;;;;10.62;100.00;100217.53;5030224;28;20448;-79
2022/01/03 02:12:40;;;;;;;0.30;0.20;;;;;;;10.48;100.00;100217.09;5027836;28;20952;-79
2022/01/03 02:15:14;;;;;;;0.30;0.20;;;;;;;10.73;100.00;100204.81;5009502;28;20453;-79
2022/01/03 02:17:44;;;;;;;0.30;0.20;;;;;;;10.66;100.00;100205.91;5035975;28;20463;-79
2022/01/03 02:20:14;;;;;;;0.30;0.20;;;;;;;10.71;100.00;100219.94;5032166;28;20444;-80
2022/01/03 02:22:43;;;;;;;0.30;0.20;;;;;;;10.56;100.00;100220.41;5012145;28;20523;-80
2022/01/03 02:25:12;;;;;;;0.30;0.20;;;;;;;10.52;100.00;100216.06;5012930;28;21550;-79
2022/01/03 02:27:40;;;;;;;0.30;0.20;;;;;;;10.55;100.00;100213.31;5015306;28;20527;-80
2022/01/03 02:30:10;;;;;;;0.30;0.20;;;;;;;10.62;100.00;100221.06;5033375;28;20449;-80
2022/01/03 02:32:37;;;;;;;0.30;0.20;;;;;;;10.74;100.00;100227.81;5026852;28;20448;-79
2022/01/03 02:35:05;;;;;;;0.30;0.20;;;;;;;10.53;100.00;100228.44;5012022;28;20444;-79
2022/01/03 02:37:31;;;;;;;0.30;0.20;;;;;;;10.75;100.00;100220.72;5026560;28;20487;-79
2022/01/03 02:39:58;;;;;;;0.30;0.20;;;;;;;10.59;100.00;100226.50;5007957;28;20491;-80
2022/01/03 02:42:29;;;;;;;0.30;0.20;;;;;;;10.51;100.00;100212.53;5033694;28;20468;-79
2022/01/03 02:44:59;;;;;;;0.30;0.20;;;;;;;10.52;100.00;100234.69;5013442;28;20448;-79
2022/01/03 02:47:26;;;;;;;0.30;0.20;;;;;;;10.81;100.00;100231.16;5014157;28;20474;-79
2022/01/03 02:49:53;;;;;;;0.30;0.20;;;;;;;10.79;100.00;100236.50;5041825;28;20444;-80
2022/01/03 02:52:20;;;;;;;0.30;0.20;;;;;;;10.70;100.00;100235.94;5010993;28;20448;-79
2022/01/03 02:54:49;;;;;;;0.30;0.20;;;;;;;10.85;100.00;100241.66;5014346;28;20445;-79
2022/01/03 02:57:22;;;;;;;0.30;0.20;;;;;;;10.80;100.00;100234.72;5027776;28;20461;-79
2022/01/03 02:59:56;;;;;;;0.30;0.20;;;;;;;10.72;100.00;100234.97;5015906;28;21083;-79
2022/01/03 03:02:26;;;;;;;0.30;0.20;;;;;;;10.84;100.00;100241.72;5010718;28;20455;-79
2022/01/03 03:04:56;;;;;;;0.30;0.20;;;;;;;10.81;100.00;100234.66;5027448;28;20448;-80
2022/01/03 03:07:25;;;;;;;0.30;0.20;;;;;;;10.90;100.00;100238.84;5029276;28;20462;-79
2022/01/03 03:09:53;;;;;;;0.30;0.20;;;;;;;11.00;100.00;100237.66;5030904;28;20436;-80
2022/01/03 03:12:21;;;;;;;0.30;0.20;;;;;;;11.08;100.00;100235.59;5011342;28;20445;-79
2022/01/03 03:14:48;;;;;;;0.30;0.30;;;;;;;11.07;100.00;100240.97;5033526;28;20441;-80
2022/01/03 03:17:18;;;;;;;0.30;0.20;;;;;;;11.07;100.00;100233.00;5011061;28;21054;-79
2022/01/03 03:20:01;;;;;;;0.30;0.20;;;;;;;11.12;100.00;100241.72;5010514;28;20571;-78
2022/01/03 03:22:30;;;;;;;0.30;0.20;;;;;;;11.14;100.00;100248.72;5030781;28;20926;-79
2022/01/03 03:25:06;;;;;;;0.30;0.20;;;;;;;11.12;100.00;100239.06;5006458;28;20530;-79
2022/01/03 03:27:36;;;;;;;0.30;0.20;;;;;;;11.15;100.00;100241.63;5040972;28;20938;-79
2022/01/03 03:30:15;;;;;;;0.30;0.20;;;;;;;11.22;100.00;100233.38;5026785;28;20497;-79
2022/01/03 03:32:44;;;;;;;0.30;0.20;;;;;;;11.20;100.00;100240.53;5009261;28;20464;-79
2022/01/03 03:35:11;;;;;;;0.30;0.20;;;;;;;11.10;100.00;100240.88;5012923;28;20443;-80
2022/01/03 03:37:38;;;;;;;0.30;0.20;;;;;;;11.17;100.00;100245.97;5044721;28;20502;-79
2022/01/03 03:40:06;;;;;;;0.30;0.20;;;;;;;11.26;100.00;100244.81;5005317;28;20488;-80
2022/01/03 03:42:32;;;;;;;0.30;0.20;;;;;;;11.11;100.00;100242.66;5010606;28;20985;-80
2022/01/03 03:44:59;;;;;;;0.30;0.20;;;;;;;11.11;100.00;100234.66;5007526;28;20864;-80
2022/01/03 03:47:26;;;;;;;0.30;0.20;;;;;;;11.13;100.00;100238.16;5023271;28;20526;-80
2022/01/03 03:49:53;;;;;;;0.30;0.20;;;;;;;11.18;100.00;100231.75;5026342;28;20449;-80
2022/01/03 03:52:19;;;;;;;0.30;0.20;;;;;;;11.11;100.00;100240.00;5010250;28;21000;-80
2022/01/03 03:54:46;;;;;;;0.30;0.20;;;;;;;11.03;100.00;100234.03;5007912;28;20444;-80
2022/01/03 03:57:12;;;;;;;0.30;0.20;;;;;;;11.25;100.00;100235.97;5028800;28;20513;-79
2022/01/03 03:59:39;;;;;;;0.30;0.20;;;;;;;10.97;100.00;100241.28;5028992;28;20549;-80
2022/01/03 04:02:07;;;;;;;0.30;0.20;;;;;;;11.01;100.00;100239.41;5032580;28;20447;-79
2022/01/03 04:04:35;;;;;;;0.30;0.20;;;;;;;11.20;100.00;100237.88;5009687;28;20428;-79
2022/01/03 04:07:02;;;;;;;0.30;0.20;;;;;;;11.15;100.00;100236.31;5008922;28;20464;-78
2022/01/03 04:09:29;;;;;;;0.30;0.20;;;;;;;11.09;100.00;100245.31;5022092;28;20463;-78
2022/01/03 04:11:57;;;;;;;0.30;0.20;;;;;;;10.94;100.00;100246.69;5024303;28;20444;-79
2022/01/03 04:14:24;;;;;;;0.30;0.20;;;;;;;10.93;100.00;100244.06;5007321;28;20436;-79
2022/01/03 04:16:51;;;;;;;0.30;0.20;;;;;;;10.91;100.00;100260.06;5025835;28;20535;-79
2022/01/03 04:19:17;;;;;;;0.30;0.20;;;;;;;10.96;100.00;100268.81;5029742;28;20485;-79
2022/01/03 04:21:44;;;;;;;0.30;0.20;;;;;;;10.97;100.00;100277.66;5023367;28;20953;-79
2022/01/03 04:24:11;;;;;;;0.30;0.20;;;;;;;11.33;100.00;100283.59;5029431;28;20452;-79
2022/01/03 04:26:39;;;;;;;0.30;0.20;;;;;;;11.35;100.00;100252.47;5007585;28;20860;-79
2022/01/03 04:29:06;;;;;;;0.30;0.20;;;;;;;11.22;100.00;100264.44;5007269;28;20953;-78
2022/01/03 04:31:37;;;;;;;0.30;0.20;;;;;;;10.82;100.00;100268.31;5004103;28;20589;-79
2022/01/03 04:34:08;;;;;;;0.30;0.20;;;;;;;10.76;100.00;100260.53;5007869;28;20444;-79
2022/01/03 04:36:35;;;;;;;0.30;0.20;;;;;;;10.72;100.00;100258.91;5026205;28;20440;-79
2022/01/03 04:39:04;;;;;;;0.30;0.20;;;;;;;10.53;100.00;100258.53;5012590;28;20484;-79
2022/01/03 04:41:31;;;;;;;0.30;0.20;;;;;;;10.45;100.00;100257.03;5010537;28;20440;-79
2022/01/03 04:43:58;;;;;;;0.30;0.20;;;;;;;10.38;100.00;100253.66;5005857;28;20447;-79
2022/01/03 04:46:24;;;;;;;0.30;0.20;;;;;;;10.35;100.00;100245.78;5010785;28;20451;-78
2022/01/03 04:48:52;;;;;;;0.30;0.20;;;;;;;10.40;100.00;100246.53;5006010;28;20441;-79
2022/01/03 04:51:18;;;;;;;0.30;0.20;;;;;;;10.39;100.00;100243.00;5011568;28;20452;-79
2022/01/03 04:53:45;;;;;;;0.30;0.20;;;;;;;10.54;100.00;100232.84;5025961;28;20447;-79
2022/01/03 04:56:13;;;;;;;0.30;0.20;;;;;;;10.47;100.00;100233.94;5014337;28;20444;-79
2022/01/03 04:58:41;;;;;;;0.30;0.20;;;;;;;10.95;100.00;100243.09;5006965;28;20468;-79
2022/01/03 05:01:08;;;;;;;0.30;0.20;;;;;;;10.62;100.00;100246.78;5008864;28;20451;-77
2022/01/03 05:03:35;;;;;;;0.30;0.20;;;;;;;10.74;100.00;100248.22;5007191;28;20800;-78
2022/01/03 05:06:02;;;;;;;0.30;0.20;;;;;;;10.84;100.00;100242.59;5006118;28;20584;-78
2022/01/03 05:08:30;;;;;;;0.30;0.20;;;;;;;10.68;100.00;100230.63;5025504;28;20533;-78
2022/01/03 05:11:00;;;;;;;0.30;0.20;;;;;;;10.66;100.00;100240.44;5011431;28;20503;-77
2022/01/03 05:13:31;;;;;;;0.60;0.47;;;;;;;10.89;100.00;100258.38;5025692;28;20440;-77
2022/01/03 05:16:00;;;;;;;0.30;0.20;;;;;;;10.73;100.00;100265.09;5007137;28;20433;-78
2022/01/03 05:18:27;;;;;;;0.30;0.20;;;;;;;10.56;100.00;100257.63;5039939;28;20490;-77
2022/01/03 05:20:54;;;;;;;0.30;0.20;;;;;;;10.48;100.00;100239.22;5006778;28;20507;-78
2022/01/03 05:23:21;;;;;;;0.30;0.20;;;;;;;10.45;100.00;100260.56;5039770;28;20965;-79
2022/01/03 05:25:48;;;;;;;0.30;0.20;;;;;;;10.42;100.00;100265.09;5038468;28;21006;-78
2022/01/03 05:28:15;;;;;;;0.30;0.20;;;;;;;10.55;100.00;100258.50;5006107;28;20857;-78
2022/01/03 05:30:42;;;;;;;0.30;0.20;;;;;;;10.48;100.00;100262.25;5006886;28;20924;-78
2022/01/03 05:33:09;;;;;;;0.30;0.20;;;;;;;10.37;100.00;100259.91;5039791;28;20566;-79
2022/01/03 05:35:36;;;;;;;0.30;0.20;;;;;;;10.39;100.00;100261.59;5027022;28;20474;-79
2022/01/03 05:38:02;;;;;;;0.30;0.20;;;;;;;10.32;100.00;100252.06;5012933;28;20484;-79
2022/01/03 05:40:29;;;;;;;0.30;0.20;;;;;;;10.34;100.00;100254.69;5028648;28;20488;-79
2022/01/03 05:42:56;;;;;;;0.30;0.20;;;;;;;10.19;100.00;100255.94;5045589;23;20510;-57
2022/01/03 05:45:25;;;;;;;0.30;0.20;;;;;;;10.11;100.00;100252.63;5042015;28;20451;-58
2022/01/03 05:47:52;;;;;;;0.30;0.20;;;;;;;10.11;100.00;100257.94;5042570;28;20435;-58
2022/01/03 05:50:19;;;;;;;0.30;0.20;;;;;;;10.12;100.00;100262.31;5040465;28;20475;-58
2022/01/03 05:52:45;;;;;;;0.30;0.20;;;;;;;10.19;100.00;100263.91;5026363;28;20448;-59
2022/01/03 05:55:13;;;;;;;0.30;0.20;;;;;;;10.15;100.00;100262.28;5031625;28;20444;-59
2022/01/03 05:57:42;;;;;;;0.30;0.20;;;;;;;10.10;100.00;100256.19;5026649;28;20450;-57
2022/01/03 06:00:13;;;;;;;0.30;0.20;;;;;;;10.27;100.00;100253.09;5025827;28;20551;-57
2022/01/03 06:02:42;;;;;;;0.30;0.20;;;;;;;10.18;100.00;100250.69;5030426;28;20935;-56
2022/01/03 06:05:32;;;;;;;0.30;0.20;;;;;;;10.07;100.00;100256.28;5025982;28;20444;-56
2022/01/03 06:07:59;;;;;;;0.30;0.20;;;;;;;10.10;100.00;100248.22;5028220;28;20477;-57
2022/01/03 06:10:26;;;;;;;0.30;0.20;;;;;;;10.00;100.00;100247.59;5026053;28;20461;-56
2022/01/03 06:12:52;;;;;;;0.30;0.20;;;;;;;9.88;100.00;100247.06;5023495;28;21319;-56
2022/01/03 06:15:24;;;;;;;0.30;0.20;;;;;;;9.86;100.00;100232.94;5023649;28;20449;-57
2022/01/03 06:17:52;;;;;;;0.30;0.20;;;;;;;9.86;100.00;100246.22;5024422;28;20433;-56
2022/01/03 06:20:18;;;;;;;0.30;0.20;;;;;;;9.83;100.00;100241.88;5027119;28;20483;-57
2022/01/03 06:22:45;;;;;;;0.30;0.20;;;;;;;9.83;100.00;100246.31;5023961;28;20451;-57
2022/01/03 06:25:12;;;;;;;0.30;0.20;;;;;;;9.90;100.00;100255.88;5032521;28;20474;-57
2022/01/03 06:27:39;;;;;;;0.30;0.20;;;;;;;9.85;100.00;100241.81;5024075;28;20471;-57
2022/01/03 06:30:07;;;;;;;0.30;0.20;;;;;;;9.88;100.00;100242.63;5023474;28;20522;-57
2022/01/03 06:32:34;;;;;;;0.30;0.20;;;;;;;9.87;100.00;100240.00;5025049;28;20495;-57
2022/01/03 06:35:01;;;;;;;0.30;0.20;;;;;;;9.89;100.00;100243.50;5026374;28;20444;-57
2022/01/03 06:37:27;;;;;;;0.30;0.20;;;;;;;9.88;100.00;100239.13;5025210;28;20507;-56
2022/01/03 06:39:54;;;;;;;0.30;0.20;;;;;;;9.90;100.00;100238.16;5022054;28;20484;-57
2022/01/03 06:42:21;;;;;;;0.30;0.20;;;;;;;9.91;100.00;100239.91;5024562;28;20449;-57
2022/01/03 06:44:48;;;;;;;0.40;0.40;;;;;;;9.98;100.00;100237.94;5024225;28;20419;-57
2022/01/03 06:47:17;;;;;;;0.30;0.20;;;;;;;9.98;100.00;100236.16;5025602;28;20455;-56
2022/01/03 06:49:44;;;;;;;0.30;0.20;;;;;;;9.98;100.00;100230.84;5022252;28;20488;-56
2022/01/03 06:52:11;;;;;;;0.30;0.20;;;;;;;9.96;100.00;100230.00;5023605;28;20833;-56
2022/01/03 06:54:38;;;;;;;0.30;0.20;;;;;;;10.05;100.00;100227.13;5027414;28;20448;-56
2022/01/03 06:57:05;;;;;;;0.30;0.20;;;;;;;10.02;100.00;100224.56;5022933;28;20444;-57
2022/01/03 06:59:31;;;;;;;0.40;0.30;;;;;;;9.93;100.00;100215.94;5025392;28;20523;-57
2022/01/03 07:01:58;;;;;;;0.30;0.20;;;;;;;9.94;100.00;100220.34;5030649;28;20452;-56
2022/01/03 07:04:25;;;;;;;0.30;0.20;;;;;;;9.91;100.00;100217.78;5022320;28;20444;-56
2022/01/03 07:06:52;;;;;;;0.30;0.20;;;;;;;9.91;100.00;100216.00;5034039;28;20932;-57
2022/01/03 07:09:19;;;;;;;0.30;0.20;;;;;;;9.92;100.00;100209.78;5027703;28;20423;-56
2022/01/03 07:11:45;;;;;;;0.30;0.20;;;;;;;9.93;100.00;100215.94;5022538;28;20463;-56
2022/01/03 07:19:58;;;;;;;0.30;0.30;;;;;;;10.27;100.00;100199.97;5025971;28;20863;-56
2022/01/03 07:22:26;;;;;;;0.30;0.20;;;;;;;10.17;100.00;100207.31;5029029;28;20924;-56
2022/01/03 07:24:53;;;;;;;0.30;0.30;;;;;;;10.23;100.00;100211.59;5029024;28;20518;-57
2022/01/03 07:27:20;;;;;;;0.30;0.20;;;;;;;10.27;100.00;100202.63;5022037;28;20444;-57
2022/01/03 07:29:48;;;;;;;0.30;0.20;;;;;;;10.43;100.00;100205.72;5022777;28;20468;-57
2022/01/03 07:32:15;;;;;;;0.30;0.20;;;;;;;10.46;100.00;100219.78;5038196;28;20787;-56
2022/01/03 07:34:41;;;;;;;0.30;0.20;;;;;;;10.65;100.00;100214.78;5024421;28;20448;-57
2022/01/03 07:37:08;;;;;;;0.30;0.20;;;;;;;10.53;100.00;100215.16;5025101;28;20440;-56
2022/01/03 07:39:35;;;;;;;0.30;0.20;;;;;;;10.64;100.00;100221.03;5025176;28;20487;-57
2022/01/03 07:42:03;;;;;;;0.30;0.20;;;;;;;10.68;100.00;100225.31;5025509;28;20483;-56
2022/01/03 07:44:29;;;;;;;0.30;0.20;;;;;;;10.35;100.00;100220.09;5023366;28;20443;-56
2022/01/03 07:46:57;;;;;;;0.30;0.20;;;;;;;10.41;100.00;100227.00;5024147;28;20446;-56
2022/01/03 07:49:24;;;;;;;0.40;0.30;;;;;;;10.36;100.00;100227.16;5025113;28;20432;-56
2022/01/03 07:51:51;;;;;;;0.77;0.77;;;;;;;10.34;100.00;100226.31;5022953;28;21021;-57
2022/01/03 07:54:18;;;;;;;0.30;0.20;;;;;;;10.28;100.00;100229.16;5026240;28;20448;-57
2022/01/03 07:56:44;;;;;;;0.30;0.20;;;;;;;10.31;100.00;100230.88;5026496;28;20511;-57
2022/01/03 07:59:11;;;;;;;0.30;0.20;;;;;;;10.31;100.00;100222.91;5019919;28;20444;-57
2022/01/03 08:01:40;;;;;;;0.30;0.20;;;;;;;10.25;100.00;100217.75;5029398;28;20511;-57
2022/01/03 08:04:08;;;;;;;0.30;0.20;;;;;;;10.24;100.00;100227.50;5027154;28;20436;-57
2022/01/03 08:06:44;;;;;;;0.30;0.20;;;;;;;10.28;100.00;100220.31;5028188;28;20964;-57
2022/01/03 08:09:11;;;;;;;0.30;0.20;;;;;;;10.30;100.00;100227.34;5016557;28;20437;-57
2022/01/03 08:11:37;;;;;;;0.30;0.20;;;;;;;10.16;100.00;100225.97;5026117;28;20547;-57
2022/01/03 08:14:04;;;;;;;0.30;0.20;;;;;;;10.07;100.00;100216.44;5019022;28;20953;-56
2022/01/03 08:16:31;;;;;;;0.30;0.20;;;;;;;10.07;100.00;100216.44;5025414;28;20475;-56
2022/01/03 08:18:58;;;;;;;0.30;0.20;;;;;;;10.12;100.00;100216.31;5022363;28;20451;-56
2022/01/03 08:21:27;;;;;;;0.30;0.20;;;;;;;10.04;100.00;100214.75;5024073;28;20569;-55
2022/01/03 08:23:54;;;;;;;0.30;0.20;;;;;;;10.12;100.00;100216.31;5019362;28;20448;-55
2022/01/03 08:26:21;;;;;;;0.30;0.20;;;;;;;10.09;100.00;100212.81;5022149;28;20502;-56
2022/01/03 08:28:47;;;;;;;0.30;0.20;;;;;;;10.16;100.00;100220.66;5025013;28;20448;-56
2022/01/03 08:31:14;;;;;;;0.30;0.20;;;;;;;10.16;100.00;100229.47;5023538;28;20863;-56
2022/01/03 08:33:43;;;;;;;0.30;0.20;;;;;;;10.19;100.00;100231.19;5024667;28;20961;-57
2022/01/03 08:36:10;;;;;;;0.30;0.20;;;;;;;10.22;100.00;100233.78;5027738;28;20527;-56
2022/01/03 08:38:36;;;;;;;0.30;0.20;;;;;;;10.31;100.00;100226.41;5019368;28;20484;-56
2022/01/03 08:41:03;;;;;;;0.30;0.20;;;;;;;10.39;100.00;100221.75;5032069;28;20538;-57
2022/01/03 08:43:31;;;;;;;0.30;0.20;;;;;;;10.45;100.00;100227.81;5025313;28;20487;-56
2022/01/03 08:45:57;;;;;;;0.30;0.20;;;;;;;10.49;100.00;100219.69;5026503;28;20452;-56
2022/01/03 08:48:24;;;;;;;0.30;0.20;;;;;;;10.51;100.00;100219.66;5025303;28;20444;-56
2022/01/03 08:50:51;;;;;;;0.30;0.20;;;;;;;10.54;100.00;100215.09;5022985;28;20530;-56
2022/01/03 08:53:19;;;;;;;0.30;0.20;;;;;;;10.73;100.00;100225.22;5022651;28;20949;-57
2022/01/03 08:55:45;;;;;;;0.30;0.20;;;;;;;10.64;100.00;100218.38;5028412;28;20479;-58
2022/01/03 08:58:12;;;;;;;0.30;0.20;;;;;;;10.63;100.00;100224.59;5024637;28;20523;-57
2022/01/03 09:00:39;;;;;;;0.30;0.20;;;;;;;10.65;100.00;100212.13;5022562;28;20492;-57
2022/01/03 09:03:05;;;;;;;3.07;2.87;;;;;;;10.67;100.00;100212.94;5026633;28;20467;-57
2022/01/03 09:05:32;;;;;;;0.30;0.20;;;;;;;10.71;100.00;100216.41;5027421;28;20476;-57
2022/01/03 09:07:59;;;;;;;0.30;0.20;;;;;;;10.71;100.00;100211.97;5028665;28;20471;-58
2022/01/03 09:10:25;;;;;;;0.30;0.20;;;;;;;10.74;100.00;100218.97;5022348;28;20527;-57
2022/01/03 09:12:52;;;;;;;0.30;0.20;;;;;;;10.72;100.00;100208.38;5027574;28;20495;-57
2022/01/03 09:15:19;;;;;;;0.30;0.20;;;;;;;10.78;100.00;100213.50;5023168;28;20858;-57
2022/01/03 09:17:46;;;;;;;0.30;0.20;;;;;;;10.75;100.00;100205.63;5023908;28;20445;-57
2022/01/03 09:20:12;;;;;;;0.30;0.20;;;;;;;10.74;100.00;100205.69;5019572;28;20483;-57
2022/01/03 09:22:43;;;;;;;0.30;0.20;;;;;;;10.77;100.00;100194.94;5033689;28;20509;-57
2022/01/03 09:30:40;;;;;;;0.30;0.20;;;;;;;10.93;100.00;100193.53;5029226;28;20460;-57
2022/01/03 09:33:07;;;;;;;0.30;0.20;;;;;;;10.92;100.00;100191.81;5025771;28;20435;-57
2022/01/03 09:35:34;;;;;;;0.30;0.20;;;;;;;11.09;100.00;100193.91;5025410;28;20795;-57
2022/01/03 09:38:01;;;;;;;0.30;0.20;;;;;;;11.12;100.00;100201.81;5022694;28;20451;-57
2022/01/03 09:40:28;;;;;;;0.30;0.20;;;;;;;11.51;100.00;100195.19;5022411;28;20841;-57
2022/01/03 09:43:00;;;;;;;0.30;0.20;;;;;;;11.47;100.00;100192.66;5024648;28;20502;-56
2022/01/03 09:45:33;;;;;;;0.40;0.30;;;;;;;11.40;100.00;100189.34;5026930;28;20499;-57
2022/01/03 09:48:02;;;;;;;0.30;0.20;;;;;;;11.39;100.00;100187.63;5021174;28;20486;-57
2022/01/03 09:50:32;;;;;;;0.30;0.20;;;;;;;11.43;100.00;100178.59;5025236;28;20987;-57
2022/01/03 09:53:02;;;;;;;0.30;0.20;;;;;;;11.66;100.00;100183.13;5031102;28;20472;-57
2022/01/03 09:55:31;;;;;;;0.30;0.20;;;;;;;11.54;100.00;100186.22;5033300;28;20490;-58
2022/01/03 09:57:58;;;;;;;0.30;0.20;;;;;;;11.62;100.00;100194.78;5023939;28;20432;-57
2022/01/03 10:00:26;;;;;;;0.30;0.20;;;;;;;11.53;100.00;100187.16;5024222;28;20550;-57
2022/01/03 10:02:54;;;;;;;0.30;0.20;;;;;;;11.71;100.00;100180.31;5028161;28;20452;-57
2022/01/03 10:05:22;;;;;;;0.30;0.20;;;;;;;11.81;100.00;100187.09;5029323;28;20803;-57
2022/01/03 10:07:49;;;;;;;0.30;0.20;;;;;;;11.87;100.00;100181.53;5025827;28;20878;-57
2022/01/03 10:10:16;;;;;;;0.30;0.20;;;;;;;11.76;100.00;100187.19;5024148;28;20804;-57
2022/01/03 10:12:43;;;;;;;0.30;0.20;;;;;;;11.79;100.00;100183.63;5026395;28;20482;-57
2022/01/03 10:15:10;;;;;;;0.30;0.20;;;;;;;11.89;100.00;100178.81;5022330;28;20459;-57
2022/01/03 10:17:42;;;;;;;0.30;0.20;;;;;;;11.98;100.00;100182.03;5027019;28;20872;-57
2022/01/03 10:20:12;;;;;;;0.30;0.20;;;;;;;11.98;100.00;100174.03;5021868;28;20471;-57
2022/01/03 10:22:41;;;;;;;0.30;0.20;;;;;;;11.92;100.00;100176.91;5022974;28;20426;-57
2022/01/03 10:25:14;;;;;;;0.30;0.20;;;;;;;11.93;100.00;100164.47;5021684;28;20456;-57
2022/01/03 10:27:54;;;;;;;0.30;0.20;;;;;;;11.90;100.00;100162.78;5025193;28;20452;-57
2022/01/03 10:30:34;;;;;;;0.40;0.40;;;;;;;11.95;100.00;100154.63;5020462;28;20481;-57
2022/01/03 10:33:04;;;;;;;0.30;0.20;;;;;;;11.95;100.00;100147.50;5022685;28;20455;-57
2022/01/03 10:35:42;;;;;;;0.30;0.20;;;;;;;11.89;100.00;100137.06;5022542;28;21237;-57
2022/01/03 10:38:10;;;;;;;0.30;0.20;;;;;;;11.88;100.00;100137.13;5021648;28;20545;-57
2022/01/03 10:40:38;;;;;;;0.30;0.20;;;;;;;12.01;100.00;100146.41;5019363;28;20549;-57
2022/01/03 10:43:18;;;;;;;0.30;0.20;;;;;;;11.87;100.00;100138.91;5021077;28;20526;-57
2022/01/03 10:45:47;;;;;;;0.30;0.20;;;;;;;12.04;100.00;100136.50;5023181;28;21007;-57
2022/01/03 10:48:30;;;;;;;0.30;0.20;;;;;;;12.09;100.00;100137.22;5024348;28;20470;-57
2022/01/03 10:50:58;;;;;;;0.30;0.20;;;;;;;12.24;100.00;100132.22;5022676;28;20464;-58
2022/01/03 10:53:41;;;;;;;0.40;0.30;;;;;;;12.26;100.00;100125.91;5023598;28;20459;-57
2022/01/03 10:56:29;;;;;;;0.30;0.20;;;;;;;12.12;100.00;100122.91;5022612;28;20463;-57
2022/01/03 10:59:23;;;;;;;0.30;0.20;;;;;;;12.20;100.00;100109.28;5022828;28;20452;-57
2022/01/03 11:01:59;;;;;;;0.30;0.20;;;;;;;12.29;100.00;100109.78;5026916;28;20491;-57
2022/01/03 11:04:34;;;;;;;0.30;0.20;;;;;;;12.36;100.00;100103.31;5025702;28;20459;-57
2022/01/03 11:10:43;;;;;;;0.30;0.20;;;;;;;11.99;100.00;100103.84;5026361;28;20463;-57
2022/01/03 11:13:20;;;;;;;0.30;0.20;;;;;;;12.13;100.00;100098.84;5024444;28;20452;-57
2022/01/03 11:15:59;;;;;;;0.30;0.20;;;;;;;12.13;100.00;100096.19;5026203;28;20451;-57
2022/01/03 11:18:34;;;;;;;0.30;0.20;;;;;;;12.30;100.00;100090.22;5026261;28;20455;-57
2022/01/03 11:21:03;;;;;;;0.30;0.20;;;;;;;12.30;100.00;100087.53;5025121;28;20546;-57
2022/01/03 11:23:32;;;;;;;0.30;0.20;;;;;;;12.38;100.00;100079.25;5032061;28;20451;-57
2022/01/03 11:26:07;;;;;;;0.30;0.20;;;;;;;12.36;100.00;100076.66;5025453;28;20475;-57
2022/01/03 11:28:35;;;;;;;0.30;0.20;;;;;;;12.58;100.00;100071.31;5031791;28;20963;-57
2022/01/03 11:31:02;;;;;;;0.30;0.20;;;;;;;12.62;100.00;100067.63;5033557;28;20468;-57
2022/01/03 11:33:30;;;;;;;0.30;0.20;;;;;;;12.43;100.00;100074.59;5033295;28;20868;-57
2022/01/03 11:36:22;;;;;;;0.30;0.20;;;;;;;12.57;100.00;100066.06;5041723;28;21878;-57
2022/01/03 11:38:50;;;;;;;0.30;0.20;;;;;;;12.44;100.00;100061.22;5022623;28;20445;-57
2022/01/03 11:41:17;;;;;;;0.30;0.20;;;;;;;12.43;100.00;100074.59;5028504;28;20920;-57
2022/01/03 11:43:44;;;;;;;0.80;0.50;;;;;;;12.49;100.00;100066.38;5024070;28;20506;-57